Aktualna pogoda na lotniskach (dane METAR)

 

EPGD - Gdansk/Rebiechow, Poland
Distance from station: ENE 44km
Updated: Sat, 19-Jan-2019 01:00 CET
Clear
Clear
 Wind from WSW
Wiatr: WSW 17 km/h
Temperatura: -3°C
Indeks Wychł.: -8°C
Punkt Rosy: -5°C
Wilgotność: 86%
Ciśnienie: 1015 hPa
Ogólnie: Clear
Widzialność: greater than 10 km
2019/01/19 00:00 EPGD 190000Z 25009KT CAVOK M03/M05 Q1015 R11/290095
EPSC - Szczecin/Golenio, Poland
Distance from station: WSW 205km
Updated: Sat, 19-Jan-2019 01:00 CET
Mist, Overcast
Mist, Overcast
 Wind from W
Wiatr: W 17 km/h
Temperatura: -1°C
Indeks Wychł.: -6°C
Punkt Rosy: -2°C
Wilgotność: 93%
Ciśnienie: 1018 hPa
Ogólnie: Mist
Zachmurzenie: Overcast
Widzialność: 5 km
Szczegóły zachm.: Overcast 152 m
2019/01/19 00:00 EPSC 190000Z 27009KT 5000 BR OVC005 M01/M02 Q1018
 
EPPO - Poznan/Lawica, Poland
Distance from station: SSW 210km
Updated: Sat, 19-Jan-2019 01:00 CET
Overcast
Overcast
 Wind from WSW
Wiatr: WSW 11 km/h
Temperatura: -1°C
Indeks Wychł.: -5°C
Punkt Rosy: -2°C
Wilgotność: 93%
Ciśnienie: 1019 hPa
Zachmurzenie: Overcast
Widzialność: 10 km
Szczegóły zachm.: Overcast 457 m
2019/01/19 00:00 EPPO 190000Z 25006KT 9999 OVC015 M01/M02 Q1019 R10/29//95
EPLL - Lodz/Lublinek, Poland
Distance from station: SSE 296km
Updated: Sat, 19-Jan-2019 01:00 CET
Clear
Clear
 Wind from SSW
Wiatr: SSW 7 km/h
Temperatura: -5°C
Indeks Wychł.: -8°C
Punkt Rosy: -6°C
Wilgotność: 93%
Ciśnienie: 1019 hPa
Ogólnie: Clear
Widzialność: greater than 10 km
2019/01/19 00:00 EPLL 190000Z 21004KT CAVOK M05/M06 Q1019 R25/29//95
 
EPWA - Warsaw/Okecie, Poland
Distance from station: SE 307km
Updated: Sat, 19-Jan-2019 01:00 CET
Clear
Clear
 Wind from W
Wiatr: W 9 km/h
Temperatura: -3°C
Indeks Wychł.: -7°C
Punkt Rosy: -5°C
Wilgotność: 86%
Ciśnienie: 1018 hPa
Ogólnie: Clear
Widzialność: greater than 10 km
2019/01/19 00:00 EPWA 190000Z 26005KT 230V290 CAVOK M03/M05 Q1018 NOSIG
EPWR - Wroclaw/Strachow, Poland
Distance from station: S 352km
Updated: Sat, 19-Jan-2019 01:00 CET
Clear
Clear
 Wind from SW
Wiatr: SW 9 km/h
Temperatura: -4°C
Indeks Wychł.: -8°C
Punkt Rosy: -7°C
Wilgotność: 80%
Ciśnienie: 1021 hPa
Ogólnie: Clear
Widzialność: greater than 10 km
2019/01/19 00:00 EPWR 190000Z 22005KT CAVOK M04/M07 Q1021

Metar display script from Saratoga-Weather.org